Ongar, United Kingdom
Current Conditions -  °F | °C
As of 10:20 AM on Thursday 29 Jan 2015 (Local Time) from EGSS Reporting Station
Few Clouds Few Clouds  
Wind Chill: 28°   Ceiling: Unl
Heat Index: 37°   Visibility: 6mi
Dew Point: 34°   Wind: 17mph
Humidity: 87%   Direction: 230°SW
Pressure: 29.06"   Gusts: NA
Location:  51.71°N, 0.24°E
Report Text: EGSS 291020Z 23015KT 9999 FEW010 03/01 Q0984
Loading
Personal Weather Stations






























Interactive Weather Map New forecast layout! Learn more

10-Day Weather Forecast

Advertisements
Track Severe Weather on mobile